Time;durP1;ratioP1;P1;durP2;ratioP2;P2;SDS_P1;SDS_P2;PMS_P1;PMS_P2;Temp;Humidity;BMP_temperature;BMP_pressure;BME280_temperature;BME280_humidity;BME280_pressure;Samples;Min_cycle;Max_cycle;Signal;HPM_P1;HPM_P2
2022/08/09 00:02:05;;;;;;;;;7.25;7.25;;;;;22.97;41.35;102079.84;6342370;22;45546;-86
2022/08/09 00:04:31;;;;;;;;;7.50;6.50;;;;;22.80;41.07;102056.22;6315061;22;45698;-85
2022/08/09 00:06:57;;;;;;;;;8.50;7.25;;;;;22.90;41.24;102071.06;6314200;22;45327;-86
2022/08/09 00:09:22;;;;;;;;;7.75;7.75;;;;;22.84;41.48;102054.31;6338739;22;45302;-86
2022/08/09 00:11:48;;;;;;;;;5.00;5.00;;;;;22.83;41.66;102056.13;6339852;22;45744;-86
2022/08/09 00:14:14;;;;;;;;;8.00;6.50;;;;;22.86;41.60;102068.56;6313879;22;47820;-86
2022/08/09 00:16:39;;;;;;;;;5.75;5.50;;;;;22.81;41.54;102062.47;6340158;22;45187;-86
2022/08/09 00:19:05;;;;;;;;;7.00;6.25;;;;;22.79;42.00;102067.00;6311925;22;45344;-85
2022/08/09 00:21:31;;;;;;;;;5.50;5.50;;;;;22.65;41.88;102046.88;6337633;22;45931;-86
2022/08/09 00:23:57;;;;;;;;;5.25;5.00;;;;;22.68;41.87;102045.88;6311445;22;46220;-87
2022/08/09 00:26:24;;;;;;;;;6.75;6.00;;;;;22.67;41.87;102050.38;6312028;22;45452;-87
2022/08/09 00:28:49;;;;;;;;;5.25;5.25;;;;;22.55;42.23;102039.19;6338897;22;45386;-86
2022/08/09 00:31:14;;;;;;;;;5.75;5.75;;;;;22.51;42.07;102030.34;6338674;22;45408;-87
2022/08/09 00:33:41;;;;;;;;;6.75;6.75;;;;;22.45;42.41;102023.38;6340427;22;47060;-87
2022/08/09 00:36:07;;;;;;;;;5.50;5.50;;;;;22.48;42.18;102042.97;6314009;22;45211;-87
2022/08/09 00:38:32;;;;;;;;;5.75;5.75;;;;;22.49;42.58;102045.63;6314390;22;45226;-87
2022/08/09 00:40:58;;;;;;;;;7.00;6.00;;;;;22.32;42.83;102032.75;6339939;22;45227;-85
2022/08/09 00:43:23;;;;;;;;;6.00;6.00;;;;;22.38;42.91;102045.97;6313123;22;47159;-86
2022/08/09 00:45:49;;;;;;;;;7.50;6.50;;;;;22.32;42.85;102042.59;6313778;22;45223;-85
2022/08/09 00:48:14;;;;;;;;;7.50;5.25;;;;;22.32;43.34;102042.59;6315646;22;45302;-85
2022/08/09 00:50:40;;;;;;;;;6.50;5.00;;;;;22.20;43.53;102033.16;6339431;22;45457;-86
2022/08/09 00:53:06;;;;;;;;;6.00;5.00;;;;;22.25;43.60;102049.97;6313062;22;47891;-87
2022/08/09 00:55:32;;;;;;;;;4.50;4.50;;;;;22.15;43.78;102033.25;6340134;22;45284;-86
2022/08/09 00:57:58;;;;;;;;;6.25;5.50;;;;;22.09;44.11;102028.09;6313679;22;45479;-86
2022/08/09 01:00:23;;;;;;;;;5.00;5.00;;;;;22.17;43.95;102046.63;6341490;22;45314;-86
2022/08/09 01:02:56;;;;;;;;;4.00;4.00;;;;;22.05;43.77;102028.22;6313517;22;46465;-86
2022/08/09 01:05:40;;;;;;;;;6.25;5.25;;;;;22.00;43.95;102031.06;6313028;22;45298;-86
2022/08/09 01:08:17;;;;;;;;;4.75;4.00;;;;;22.02;44.28;102042.59;6313290;22;45161;-86
2022/08/09 01:10:55;;;;;;;;;5.25;4.50;;;;;22.01;44.11;102048.91;6313068;22;45885;-86
2022/08/09 01:13:56;;;;;;;;;6.00;5.50;;;;;21.95;44.41;102038.38;6314156;22;47034;-86
2022/08/09 01:16:25;;;;;;;;;4.75;4.75;;;;;21.84;44.49;102021.69;6283603;22;45798;-87
2022/08/09 01:18:53;;;;;;;;;6.00;5.00;;;;;21.93;44.80;102043.75;6313755;22;45311;-86
2022/08/09 01:21:27;;;;;;;;;5.00;5.00;;;;;21.86;44.80;102049.34;6339400;22;45612;-86
2022/08/09 01:24:03;;;;;;;;;6.00;5.00;;;;;21.76;44.91;102021.97;6313445;22;47128;-86
2022/08/09 01:27:00;;;;;;;;;7.00;7.00;;;;;21.87;44.95;102052.00;6313596;22;45189;-86
2022/08/09 01:29:30;;;;;;;;;4.25;4.25;;;;;21.85;44.81;102063.69;6313696;22;45209;-86
2022/08/09 01:31:59;;;;;;;;;4.00;3.75;;;;;21.80;45.14;102053.09;6313386;22;45276;-86
2022/08/09 01:34:27;;;;;;;;;6.50;6.25;;;;;21.77;45.55;102055.88;6313363;22;47372;-87
2022/08/09 01:36:55;;;;;;;;;5.00;4.00;;;;;21.73;45.51;102048.84;6313257;22;45461;-87
2022/08/09 01:39:23;;;;;;;;;4.25;4.25;;;;;21.71;45.77;102056.06;6313760;22;45357;-86
2022/08/09 01:41:50;;;;;;;;;5.75;5.75;;;;;21.68;45.35;102054.34;6342193;22;45189;-84
2022/08/09 01:44:16;;;;;;;;;4.00;4.00;;;;;21.66;45.87;102048.16;6312065;22;47851;-85
2022/08/09 01:46:44;;;;;;;;;5.50;5.50;;;;;21.66;45.80;102050.84;6340435;22;46110;-89
2022/08/09 01:49:20;;;;;;;;;4.50;4.50;;;;;21.65;45.63;102050.88;6313723;22;45279;-88
2022/08/09 01:51:49;;;;;;;;;5.75;5.75;;;;;21.59;45.79;102043.88;6313806;22;45360;-87
2022/08/09 01:54:17;;;;;;;;;4.75;4.75;;;;;21.51;46.02;102030.69;6341873;22;46042;-88
2022/08/09 01:56:45;;;;;;;;;5.75;5.75;;;;;21.54;45.95;102038.69;6340660;22;44811;-88
2022/08/09 01:59:16;;;;;;;;;6.00;6.00;;;;;21.48;45.82;102038.81;6339489;22;45236;-88
2022/08/09 02:01:44;;;;;;;;;5.00;5.00;;;;;21.54;46.23;102048.50;6313539;22;45289;-87
2022/08/09 02:04:13;;;;;;;;;7.00;7.00;;;;;21.51;46.14;102049.47;6313237;22;47272;-89
2022/08/09 02:09:28;;;;;;;;;3.25;2.25;;;;;21.43;46.46;102048.78;6342218;22;45180;-88
2022/08/09 02:11:54;;;;;;;;;4.50;4.50;;;;;21.46;46.40;102051.38;6339603;22;45478;-88
2022/08/09 02:14:22;;;;;;;;;5.00;4.00;;;;;21.40;46.39;102046.22;6339517;22;47654;-87
2022/08/09 02:16:49;;;;;;;;;4.75;4.75;;;;;21.32;46.76;102033.00;6340034;22;45128;-89
2022/08/09 02:19:16;;;;;;;;;6.00;5.00;;;;;21.38;46.87;102042.69;6313771;22;45191;-89
2022/08/09 02:21:48;;;;;;;;;5.25;5.25;;;;;21.28;46.63;102023.28;6313478;22;45463;-88
2022/08/09 02:24:22;;;;;;;;;6.00;6.00;;;;;21.27;46.72;102029.56;6314143;22;47094;-88
2022/08/09 02:26:50;;;;;;;;;5.00;5.00;;;;;21.23;46.90;102025.22;6339837;22;45125;-88
2022/08/09 02:29:26;;;;;;;;;6.50;6.00;;;;;21.28;47.11;102035.81;6313026;22;45236;-88
2022/08/09 02:31:58;;;;;;;;;6.00;5.25;;;;;21.23;47.12;102038.63;6313658;22;44776;-88
2022/08/09 02:34:27;;;;;;;;;7.25;7.25;;;;;21.25;46.99;102038.56;6341839;22;45230;-89
2022/08/09 02:36:57;;;;;;;;;6.75;5.00;;;;;21.23;47.29;102041.28;6313699;22;45775;-87
2022/08/09 02:39:28;;;;;;;;;2.75;2.75;;;;;21.22;47.30;102036.84;6339828;22;45124;-88
2022/08/09 02:41:59;;;;;;;;;6.00;6.00;;;;;21.06;47.26;102020.34;6313172;22;45689;-89
2022/08/09 02:44:29;;;;;;;;;5.75;4.75;;;;;21.10;47.16;102030.03;6341813;22;46145;-89
2022/08/09 02:46:58;;;;;;;;;5.75;5.25;;;;;21.05;47.52;102023.03;6340789;22;45347;-88
2022/08/09 02:49:24;;;;;;;;;7.75;5.50;;;;;21.12;47.63;102035.34;6315515;22;45188;-88
2022/08/09 02:51:56;;;;;;;;;7.25;6.75;;;;;21.06;47.58;102032.81;6315854;22;45422;-89
2022/08/09 02:54:24;;;;;;;;;7.25;5.00;;;;;21.04;47.44;102030.19;6315174;22;46748;-88
2022/08/09 02:56:51;;;;;;;;;5.75;5.75;;;;;20.88;48.00;102015.47;6341020;22;45325;-89
2022/08/09 02:59:18;;;;;;;;;5.75;5.75;;;;;20.89;47.77;102023.44;6299291;22;45256;-88
2022/08/09 03:01:46;;;;;;;;;6.00;5.00;;;;;20.95;48.45;102042.94;6278519;22;45335;-89
2022/08/09 03:04:15;;;;;;;;;6.00;5.75;;;;;20.90;47.99;102035.03;6279412;22;46972;-88
2022/08/09 03:06:43;;;;;;;;;6.25;6.00;;;;;20.80;48.18;102017.47;6278803;22;45189;-88
2022/08/09 03:09:11;;;;;;;;;5.50;5.50;;;;;20.87;48.41;102041.34;6279403;22;44728;-89
2022/08/09 03:11:38;;;;;;;;;6.25;6.25;;;;;20.66;48.95;102005.31;6279800;22;45331;-89
2022/08/09 03:14:05;;;;;;;;;5.75;5.75;;;;;20.81;48.40;102029.91;6278664;22;46365;-87
2022/08/09 03:16:32;;;;;;;;;6.00;6.00;;;;;20.67;48.44;102012.41;6279430;22;45218;-89
2022/08/09 03:18:59;;;;;;;;;5.75;5.75;;;;;20.67;48.57;102014.22;6281642;22;45357;-89
2022/08/09 03:21:26;;;;;;;;;5.25;5.25;;;;;20.61;49.01;102019.72;6282446;22;45426;-88
2022/08/09 03:23:51;;;;;;;;;8.25;6.50;;;;;20.49;49.13;102005.69;6292350;22;47413;-88
2022/08/09 03:26:18;;;;;;;;;5.25;5.25;;;;;20.66;48.82;102032.09;6295342;22;45163;-88
2022/08/09 03:28:46;;;;;;;;;6.25;5.50;;;;;20.62;48.74;102030.38;6295092;22;45157;-89
2022/08/09 03:31:12;;;;;;;;;5.00;5.00;;;;;20.61;49.11;102027.72;6296008;22;45464;-89
2022/08/09 03:33:39;;;;;;;;;7.00;6.75;;;;;20.49;49.24;102016.41;6296440;22;46407;-87
2022/08/09 03:36:09;;;;;;;;;6.00;5.25;;;;;20.46;49.46;102011.13;6290443;22;45350;-88
2022/08/09 03:38:39;;;;;;;;;6.50;5.00;;;;;20.55;49.46;102018.06;6293764;22;45169;-87
2022/08/09 03:41:05;;;;;;;;;6.00;6.00;;;;;20.48;49.42;102017.31;6299895;22;45410;-87
2022/08/09 03:43:30;;;;;;;;;6.00;6.00;;;;;20.43;49.52;102000.50;6290893;22;47992;-89
2022/08/09 03:45:59;;;;;;;;;7.25;7.25;;;;;20.38;49.77;102004.22;6284869;22;45204;-89
2022/08/09 03:48:25;;;;;;;;;6.00;5.75;;;;;20.38;49.58;102009.56;6285256;22;45200;-90
2022/08/09 03:50:55;;;;;;;;;6.75;6.75;;;;;20.53;49.77;102029.69;6285322;22;45248;-88
2022/08/09 03:53:22;;;;;;;;;8.00;6.00;;;;;20.54;49.79;102036.84;6294944;22;46801;-89
2022/08/09 03:55:48;;;;;;;;;6.00;4.75;;;;;20.54;49.52;102036.84;6290291;22;45202;-90
2022/08/09 03:58:15;;;;;;;;;5.50;5.50;;;;;20.41;49.59;102018.38;6279946;22;45280;-89
2022/08/09 04:00:42;;;;;;;;;7.00;7.00;;;;;20.53;49.50;102027.00;6307810;22;45748;-89
2022/08/09 04:03:09;;;;;;;;;9.00;7.00;;;;;20.52;49.77;102030.63;6310311;22;45355;-89
2022/08/09 04:05:35;;;;;;;;;6.75;6.25;;;;;20.45;49.50;102025.44;6310671;22;45279;-90
2022/08/09 04:08:00;;;;;;;;;6.50;6.50;;;;;20.43;50.16;102021.03;6311487;22;45189;-88
2022/08/09 04:10:26;;;;;;;;;7.75;6.50;;;;;20.45;50.15;102029.91;6311544;22;45276;-90
2022/08/09 04:12:53;;;;;;;;;5.00;5.00;;;;;20.39;50.06;102030.03;6310651;22;46599;-89
2022/08/09 04:15:23;;;;;;;;;3.75;3.75;;;;;20.43;49.49;102043.31;6310270;22;45331;-89
2022/08/09 04:17:49;;;;;;;;;7.25;7.00;;;;;20.37;49.82;102038.09;6310296;22;45306;-88
2022/08/09 04:20:16;;;;;;;;;7.75;6.00;;;;;20.46;50.29;102059.28;6309801;22;45498;-88
2022/08/09 04:22:43;;;;;;;;;6.75;5.50;;;;;20.46;49.83;102051.25;6309288;22;47221;-89
2022/08/09 04:25:09;;;;;;;;;8.25;8.00;;;;;20.32;50.03;102031.13;6310091;22;45235;-88
2022/08/09 04:27:39;;;;;;;;;7.50;7.00;;;;;20.43;50.30;102056.69;6310019;22;45203;-89
2022/08/09 04:30:07;;;;;;;;;6.00;6.00;;;;;20.30;50.18;102038.28;6308661;22;45337;-87
2022/08/09 04:32:33;;;;;;;;;7.25;7.25;;;;;20.33;50.50;102051.59;6309088;22;47066;-88
2022/08/09 04:34:58;;;;;;;;;5.00;5.00;;;;;20.27;50.43;102056.16;6309565;22;45100;-89
2022/08/09 04:37:23;;;;;;;;;6.75;6.75;;;;;20.27;50.87;102056.16;6309243;22;45724;-87
2022/08/09 04:39:49;;;;;;;;;7.50;6.50;;;;;20.11;50.48;102044.06;6310527;22;45199;-87
2022/08/09 04:42:14;;;;;;;;;6.00;6.00;;;;;20.16;50.73;102054.66;6309068;22;48223;-88
2022/08/09 04:44:40;;;;;;;;;6.75;6.75;;;;;20.03;50.95;102027.31;6308500;22;45230;-87
2022/08/09 04:47:05;;;;;;;;;7.25;7.25;;;;;20.13;50.65;102044.91;6309237;22;45350;-88
2022/08/09 04:49:32;;;;;;;;;7.75;7.00;;;;;20.08;50.98;102041.47;6307752;22;45557;-88
2022/08/09 04:51:58;;;;;;;;;8.25;7.25;;;;;20.10;50.70;102046.75;6309018;22;47470;-87
2022/08/09 04:54:23;;;;;;;;;7.00;7.00;;;;;20.19;51.23;102063.47;6309293;22;45333;-88
2022/08/09 04:56:49;;;;;;;;;7.50;7.50;;;;;20.09;51.08;102047.69;6311082;22;45289;-88
2022/08/09 04:59:14;;;;;;;;;7.75;6.75;;;;;20.14;50.89;102052.00;6308838;22;45512;-87
2022/08/09 05:01:40;;;;;;;;;8.25;8.00;;;;;20.06;51.28;102048.63;6309211;22;47331;-87
2022/08/09 05:04:05;;;;;;;;;7.25;6.50;;;;;20.04;51.18;102045.09;6308922;22;45235;-87
2022/08/09 05:06:30;;;;;;;;;7.00;7.00;;;;;20.13;51.08;102060.94;6311270;22;46004;-87
2022/08/09 05:08:56;;;;;;;;;7.50;5.50;;;;;20.05;51.24;102045.06;6308694;22;45420;-87
2022/08/09 05:11:22;;;;;;;;;6.75;6.75;;;;;20.14;51.14;102053.81;6309126;22;47905;-88
2022/08/09 05:13:47;;;;;;;;;10.25;7.75;;;;;20.23;51.36;102080.31;6308879;22;45200;-87
2022/08/09 05:16:13;;;;;;;;;8.25;7.00;;;;;20.14;50.86;102059.16;6309501;22;45216;-88
2022/08/09 05:18:38;;;;;;;;;7.25;7.25;;;;;20.17;51.12;102061.75;6308899;22;45171;-88
2022/08/09 05:21:04;;;;;;;;;8.75;7.50;;;;;20.03;51.28;102035.34;6309538;22;46786;-88
2022/08/09 05:23:29;;;;;;;;;8.50;7.75;;;;;20.10;51.30;102047.66;6307699;22;45174;-88
2022/08/09 05:25:55;;;;;;;;;7.00;7.00;;;;;20.15;50.90;102052.88;6308938;22;45243;-87
2022/08/09 05:28:20;;;;;;;;;8.00;8.00;;;;;20.21;51.36;102067.00;6308569;22;45417;-87
2022/08/09 05:30:46;;;;;;;;;7.25;7.25;;;;;20.18;51.22;102050.13;6308487;22;47377;-87
2022/08/09 05:33:12;;;;;;;;;7.25;7.25;;;;;20.22;50.98;102066.09;6309827;22;45327;-88
2022/08/09 05:35:37;;;;;;;;;6.75;6.75;;;;;20.26;50.86;102070.47;6309317;22;45282;-88
2022/08/09 05:38:03;;;;;;;;;8.50;6.25;;;;;20.25;50.86;102078.50;6309864;22;45260;-88
2022/08/09 05:40:28;;;;;;;;;8.75;7.25;;;;;20.29;51.14;102082.88;6308463;22;46755;-88
2022/08/09 05:42:54;;;;;;;;;7.00;6.75;;;;;20.25;51.30;102075.81;6307775;22;45372;-87
2022/08/09 05:45:20;;;;;;;;;8.50;7.00;;;;;20.30;51.15;102083.75;6308489;22;45388;-87
2022/08/09 05:47:45;;;;;;;;;5.25;5.25;;;;;20.32;50.80;102084.59;6308903;22;45703;-87
2022/08/09 05:50:11;;;;;;;;;5.75;5.75;;;;;20.31;51.15;102082.81;6308416;22;46989;-87
2022/08/09 05:52:38;;;;;;;;;7.00;7.00;;;;;20.22;50.85;102065.22;6307789;22;45270;-88
2022/08/09 05:55:03;;;;;;;;;10.00;8.50;;;;;20.32;51.06;102082.81;6308631;22;45365;-87
2022/08/09 05:57:29;;;;;;;;;3.00;3.00;;;;;20.38;50.62;102093.34;6308298;22;45383;-87
2022/08/09 05:59:56;;;;;;;;;7.75;7.75;;;;;20.38;50.95;102079.09;6307927;22;46766;-87
2022/08/09 06:02:22;;;;;;;;;7.75;7.00;;;;;20.48;50.55;102086.88;6309164;22;45338;-87
2022/08/09 06:04:50;;;;;;;;;5.25;4.00;;;;;20.37;50.65;102069.31;6308582;22;45434;-88
2022/08/09 06:07:16;;;;;;;;;9.25;9.25;;;;;20.52;50.53;102092.16;6308687;22;45730;-87
2022/08/09 06:09:41;;;;;;;;;7.00;7.00;;;;;20.47;50.65;102081.56;6308327;22;46963;-88
2022/08/09 06:12:07;;;;;;;;;6.25;6.25;;;;;20.50;50.41;102089.50;6308386;22;45171;-88
2022/08/09 06:14:33;;;;;;;;;8.00;8.00;;;;;20.52;50.77;102097.50;6309985;22;45276;-87
2022/08/09 06:16:58;;;;;;;;;7.00;5.75;;;;;20.58;50.32;102094.72;6309973;22;45741;-88
2022/08/09 06:19:24;;;;;;;;;5.50;5.50;;;;;20.56;50.53;102093.91;6308005;22;47310;-86
2022/08/09 06:21:49;;;;;;;;;7.75;7.75;;;;;20.58;50.22;102095.63;6307847;22;45353;-87
2022/08/09 06:24:14;;;;;;;;;7.50;7.50;;;;;20.65;50.62;102104.38;6309900;22;45163;-88
2022/08/09 06:26:40;;;;;;;;;8.25;8.25;;;;;20.72;50.35;102118.50;6309792;22;45469;-88
2022/08/09 06:29:08;;;;;;;;;11.50;10.25;;;;;20.65;50.50;102099.00;6310015;22;47049;-88
2022/08/09 06:31:34;;;;;;;;;9.50;8.25;;;;;20.75;50.12;102113.06;6309440;22;45260;-87
2022/08/09 06:34:01;;;;;;;;;7.75;6.25;;;;;20.76;50.29;102104.97;6309567;22;45216;-88
2022/08/09 06:36:26;;;;;;;;;5.75;5.75;;;;;20.87;50.15;102129.69;6309079;22;46222;-89
2022/08/09 06:38:52;;;;;;;;;9.75;8.75;;;;;20.84;50.27;102116.38;6308979;22;47653;-87
2022/08/09 06:41:17;;;;;;;;;7.50;7.25;;;;;20.80;50.19;102111.16;6311798;22;45072;-87
2022/08/09 06:43:45;;;;;;;;;7.25;7.00;;;;;20.88;49.98;102117.19;6309661;22;45178;-89
2022/08/09 06:46:11;;;;;;;;;8.75;7.75;;;;;20.86;50.24;102116.34;6309776;22;45401;-90
2022/08/09 06:48:36;;;;;;;;;8.00;8.00;;;;;20.90;50.29;102121.59;6309271;22;47697;-87
2022/08/09 06:51:04;;;;;;;;;8.00;7.25;;;;;20.91;50.35;102122.47;6308931;22;45411;-86
2022/08/09 06:53:29;;;;;;;;;9.50;7.00;;;;;20.93;49.89;102116.16;6309420;22;45275;-86
2022/08/09 06:55:55;;;;;;;;;9.25;5.75;;;;;20.96;49.53;102114.34;6309379;22;46024;-87
2022/08/09 06:58:21;;;;;;;;;10.00;9.00;;;;;21.01;49.72;102113.31;6309079;22;46798;-86
2022/08/09 07:00:46;;;;;;;;;10.75;9.00;;;;;21.07;49.70;102125.66;6308206;22;45276;-85
2022/08/09 07:03:14;;;;;;;;;10.75;8.50;;;;;21.12;50.03;102121.06;6307968;22;45272;-85
2022/08/09 07:05:40;;;;;;;;;9.75;9.00;;;;;21.20;49.54;102131.53;6310541;22;45372;-86
2022/08/09 07:08:05;;;;;;;;;9.75;8.50;;;;;21.25;49.26;102130.53;6309674;22;46927;-91
2022/08/09 07:10:31;;;;;;;;;12.50;8.75;;;;;21.29;49.57;102128.66;6310832;22;45305;-91
2022/08/09 07:12:57;;;;;;;;;11.00;10.00;;;;;21.27;48.98;102119.75;6309928;22;45282;-89
2022/08/09 07:15:22;;;;;;;;;9.25;8.25;;;;;21.39;49.18;102122.16;6309384;22;45425;-88
2022/08/09 07:17:48;;;;;;;;;6.50;5.75;;;;;21.53;49.24;102143.22;6309064;22;46768;-88
2022/08/09 07:20:14;;;;;;;;;12.00;10.00;;;;;21.57;49.08;102132.38;6309164;22;45337;-86
2022/08/09 07:22:40;;;;;;;;;9.75;9.25;;;;;21.59;48.69;102130.53;6309575;22;45389;-87
2022/08/09 07:25:06;;;;;;;;;9.50;8.75;;;;;21.74;48.55;102139.94;6308265;22;45612;-88
2022/08/09 07:27:31;;;;;;;;;7.00;6.50;;;;;21.76;48.24;102121.16;6309246;22;47768;-87
2022/08/09 07:29:57;;;;;;;;;8.25;7.25;;;;;21.82;48.30;102129.00;6310710;22;45298;-87
2022/08/09 07:32:22;;;;;;;;;9.00;9.00;;;;;21.93;48.38;102131.38;6308976;22;45145;-87
2022/08/09 07:34:47;;;;;;;;;8.25;7.25;;;;;21.96;48.03;102125.94;6335206;22;45472;-86
2022/08/09 07:37:16;;;;;;;;;9.25;7.75;;;;;21.98;47.69;102116.03;6309103;22;47414;-87
2022/08/09 07:39:41;;;;;;;;;8.50;8.50;;;;;22.08;47.84;102130.03;6309594;22;45124;-87
2022/08/09 07:42:06;;;;;;;;;8.00;8.00;;;;;22.14;47.81;102116.47;6309321;22;45198;-85
2022/08/09 07:44:32;;;;;;;;;7.25;6.00;;;;;22.31;47.65;102129.41;6308453;22;45694;-85
2022/08/09 07:46:57;;;;;;;;;9.25;8.75;;;;;22.36;47.14;102130.13;6308560;22;46857;-88
2022/08/09 07:49:23;;;;;;;;;10.25;9.25;;;;;22.39;47.21;102121.97;6308666;22;45390;-87
2022/08/09 07:51:48;;;;;;;;;5.75;5.75;;;;;22.43;46.93;102129.91;6309969;22;45193;-86
2022/08/09 07:54:14;;;;;;;;;14.75;14.75;;;;;22.50;46.68;102124.34;6311534;22;45258;-91
2022/08/09 07:56:41;;;;;;;;;6.75;6.75;;;;;22.60;46.80;102126.69;6308870;22;47280;-86
2022/08/09 07:59:06;;;;;;;;;11.25;10.25;;;;;22.65;46.77;102121.16;6309735;22;45224;-89
2022/08/09 08:01:36;;;;;;;;;9.00;8.00;;;;;22.75;46.70;102119.94;6309343;22;45254;-89
2022/08/09 08:04:02;;;;;;;;;7.00;7.00;;;;;22.91;46.36;102131.06;6308736;22;45282;-88
2022/08/09 08:06:40;;;;;;;;;;;;;;;;;;;;;
2022/08/09 08:09:06;;;;;;;;;7.00;6.75;;;;;23.13;45.98;102128.56;6309901;22;72917;-91
2022/08/09 08:11:31;;;;;;;;;9.00;7.50;;;;;23.22;45.58;102120.16;6309949;22;45654;-89
2022/08/09 08:13:58;;;;;;;;;9.00;6.75;;;;;23.37;45.22;102136.72;6311030;22;45210;-87
2022/08/09 08:16:23;;;;;;;;;7.25;5.75;;;;;23.46;45.24;102129.19;6310596;22;47084;-91
2022/08/09 08:18:51;;;;;;;;;7.00;7.00;;;;;23.49;45.20;102121.00;6311864;22;45262;-88
2022/08/09 08:21:17;;;;;;;;;7.75;7.75;;;;;23.67;44.53;102127.53;6311289;22;45445;-87
2022/08/09 08:23:55;;;;;;;;;;;;;;;;;;;;;
2022/08/09 08:26:23;;;;;;;;;5.50;5.00;;;;;23.81;44.02;102118.13;6309888;22;74606;-85
2022/08/09 08:28:48;;;;;;;;;7.00;6.00;;;;;23.88;43.82;102115.16;6309400;22;45215;-79
2022/08/09 08:31:14;;;;;;;;;7.00;7.00;;;;;24.01;43.86;102133.53;6309504;22;45080;-79
2022/08/09 08:33:39;;;;;;;;;5.50;5.50;;;;;24.11;43.82;102135.81;6307768;22;45715;-79
2022/08/09 08:36:05;;;;;;;;;8.00;8.00;;;;;24.20;43.57;102139.94;6307730;22;47801;-79
2022/08/09 08:38:31;;;;;;;;;6.75;6.00;;;;;24.27;43.33;102128.03;6309500;22;45245;-79
2022/08/09 08:40:58;;;;;;;;;5.25;5.25;;;;;24.41;42.81;102128.34;6307825;22;45105;-79
2022/08/09 08:43:24;;;;;;;;;4.25;4.25;;;;;24.57;42.26;102136.72;6307543;22;45311;-79
2022/08/09 08:45:56;;;;;;;;;7.25;7.25;;;;;24.66;41.94;102127.38;6306785;22;46427;-79
2022/08/09 08:48:23;;;;;;;;;8.25;7.00;;;;;24.74;42.03;102129.78;6310111;22;45151;-80
2022/08/09 08:50:48;;;;;;;;;11.00;8.25;;;;;24.79;41.65;102125.94;6307780;22;45302;-79
2022/08/09 08:53:14;;;;;;;;;7.50;7.00;;;;;24.86;41.84;102121.19;6309397;22;45459;-79
2022/08/09 08:55:43;;;;;;;;;7.25;6.50;;;;;24.96;41.44;102118.97;6309659;22;46037;-79
2022/08/09 08:58:09;;;;;;;;;8.50;7.50;;;;;25.10;41.28;102130.06;6307307;22;45172;-78
2022/08/09 09:00:35;;;;;;;;;7.00;6.75;;;;;25.22;41.30;102126.00;6307194;22;45282;-78
2022/08/09 09:03:03;;;;;;;;;8.75;7.75;;;;;25.31;40.69;102122.88;6307383;22;45520;-79
2022/08/09 09:05:30;;;;;;;;;8.50;7.00;;;;;25.34;40.59;102117.38;6309443;22;46079;-79
2022/08/09 09:07:57;;;;;;;;;5.00;5.00;;;;;25.42;40.78;102126.00;6309294;22;45278;-79
2022/08/09 09:10:25;;;;;;;;;6.00;6.00;;;;;25.48;40.22;102130.25;6307080;22;45236;-79
2022/08/09 09:12:50;;;;;;;;;6.00;5.00;;;;;25.50;40.18;102126.53;6307159;22;45925;-79
2022/08/09 09:15:16;;;;;;;;;8.00;7.00;;;;;25.59;39.98;102124.38;6309261;22;46463;-79
2022/08/09 09:17:41;;;;;;;;;6.00;6.00;;;;;25.69;39.60;102125.72;6309435;22;45167;-79
2022/08/09 09:20:12;;;;;;;;;6.00;6.00;;;;;25.79;39.86;102123.47;6307307;22;45413;-77
2022/08/09 09:22:51;;;;;;;;;5.00;5.00;;;;;25.89;39.38;102125.69;6307668;22;45491;-75
2022/08/09 09:25:40;;;;;;;;;8.00;8.00;;;;;25.94;39.33;102117.41;6302930;22;46368;-77
2022/08/09 09:28:06;;;;;;;;;5.67;5.67;;;;;26.08;38.99;102122.16;6303415;22;45753;-77
2022/08/09 09:30:33;;;;;;;;;7.25;7.25;;;;;26.13;39.20;102106.63;6305450;22;45407;-77
2022/08/09 09:33:09;;;;;;;;;7.50;7.50;;;;;26.25;38.71;102111.44;6304782;22;45554;-75
2022/08/09 09:36:00;;;;;;;;;7.00;6.25;;;;;26.38;38.45;102118.00;6306836;22;45292;-74
2022/08/09 09:38:39;;;;;;;;;7.00;7.00;;;;;26.38;38.51;102109.00;6307145;22;45400;-76
2022/08/09 09:41:04;;;;;;;;;7.00;6.00;;;;;26.45;38.05;102106.91;6305731;22;45537;-78
2022/08/09 09:43:31;;;;;;;;;7.25;6.00;;;;;26.57;38.37;102109.00;6308068;22;45338;-78
2022/08/09 09:45:57;;;;;;;;;7.25;7.25;;;;;26.69;37.72;102112.97;6307538;22;46247;-77
2022/08/09 09:48:22;;;;;;;;;6.00;6.00;;;;;26.75;37.79;102112.63;6307089;22;45427;-77
2022/08/09 09:50:50;;;;;;;;;9.00;8.00;;;;;26.75;37.69;102102.69;6306434;22;45446;-77
2022/08/09 09:53:26;;;;;;;;;7.00;7.00;;;;;26.81;37.43;102112.31;6307532;22;45477;-77
2022/08/09 09:55:56;;;;;;;;;8.25;7.00;;;;;26.87;37.10;102109.34;6302995;22;47079;-77
2022/08/09 09:58:22;;;;;;;;;9.50;7.50;;;;;26.88;37.16;102102.09;6304083;22;45607;-77
2022/08/09 10:00:55;;;;;;;;;9.00;8.00;;;;;27.01;36.63;102104.09;6304943;22;45426;-76
2022/08/09 10:03:38;;;;;;;;;8.50;8.00;;;;;27.11;36.84;102096.41;6304140;22;45425;-79
2022/08/09 10:06:04;;;;;;;;;8.50;6.75;;;;;27.24;36.73;102092.13;6303810;22;47911;-78
2022/08/09 10:08:29;;;;;;;;;6.00;5.00;;;;;27.36;36.74;102095.13;6304706;22;45331;-76
2022/08/09 10:10:55;;;;;;;;;6.25;5.75;;;;;27.49;36.37;102096.22;6307796;22;45365;-78
2022/08/09 10:13:20;;;;;;;;;7.00;7.00;;;;;27.55;36.31;102093.19;6307520;22;45448;-77
2022/08/09 10:15:50;;;;;;;;;7.00;5.50;;;;;27.64;36.02;102097.22;6305249;22;48169;-76
2022/08/09 10:18:16;;;;;;;;;6.00;6.00;;;;;27.72;35.95;102095.00;6306886;22;45459;-78
2022/08/09 10:20:43;;;;;;;;;8.00;8.00;;;;;27.82;35.58;102098.09;6306293;22;45219;-77
2022/08/09 10:23:17;;;;;;;;;9.00;7.75;;;;;27.92;35.32;102093.94;6307022;22;45669;-77
2022/08/09 10:25:45;;;;;;;;;8.00;8.00;;;;;27.98;34.95;102090.00;6305900;22;45544;-76
2022/08/09 10:28:43;;;;;;;;;;;;;;;;;;;;;
2022/08/09 10:31:15;;;;;;;;;7.75;7.75;;;;;28.23;34.75;102087.69;6311586;22;67866;-91
2022/08/09 10:33:41;;;;;;;;;6.75;6.75;;;;;28.38;34.40;102086.78;6305699;22;45499;-86
2022/08/09 10:36:09;;;;;;;;;7.25;7.25;;;;;28.53;34.09;102095.03;6307781;22;46266;-85
2022/08/09 10:41:58;;;;;;;;;9.25;9.25;;;;;28.79;33.63;102091.69;6290632;22;45318;-87
2022/08/09 10:44:29;;;;;;;;;8.25;7.25;;;;;28.90;33.45;102082.91;6304171;22;45425;-86
2022/08/09 10:46:54;;;;;;;;;6.25;6.25;;;;;29.12;33.23;102087.06;6305776;22;47118;-88
2022/08/09 10:49:35;;;;;;;;;7.75;7.00;;;;;29.30;33.16;102083.22;6307217;22;45197;-86
2022/08/09 10:52:02;;;;;;;;;8.75;8.75;;;;;29.46;32.83;102075.88;6305610;22;45243;-89
2022/08/09 10:54:28;;;;;;;;;5.25;5.25;;;;;29.58;31.77;102070.66;6305860;22;45444;-85
2022/08/09 10:57:14;;;;;;;;;6.25;5.25;;;;;29.64;32.06;102071.19;6305567;22;47291;-77
2022/08/09 10:59:41;;;;;;;;;7.00;7.00;;;;;29.63;31.64;102072.09;6321412;22;45552;-74
2022/08/09 11:02:12;;;;;;;;;8.75;8.75;;;;;29.65;31.58;102061.19;6309390;22;45763;-77
2022/08/09 11:04:38;;;;;;;;;7.00;7.00;;;;;29.73;30.97;102071.56;6337716;22;45248;-76
2022/08/09 11:07:03;;;;;;;;;7.00;6.00;;;;;29.80;31.53;102067.47;6338098;22;45716;-76
2022/08/09 11:09:41;;;;;;;;;6.00;5.25;;;;;29.92;31.54;102069.41;6310801;22;45263;-77
2022/08/09 11:12:17;;;;;;;;;7.00;6.50;;;;;30.01;31.49;102065.22;6311299;22;45247;-76
2022/08/09 11:15:03;;;;;;;;;6.33;6.33;;;;;30.14;30.84;102060.75;6339204;22;45488;-77
2022/08/09 11:17:31;;;;;;;;;6.00;6.00;;;;;30.32;30.90;102059.56;6309769;22;46106;-77
2022/08/09 11:20:10;;;;;;;;;7.75;6.50;;;;;30.42;30.40;102064.38;6311156;22;45510;-76
2022/08/09 11:22:38;;;;;;;;;8.50;8.00;;;;;30.61;30.02;102061.28;6338077;22;45272;-76
2022/08/09 11:25:08;;;;;;;;;6.33;5.67;;;;;30.73;30.32;102050.44;6311175;22;45398;-77
2022/08/09 11:27:37;;;;;;;;;6.25;6.25;;;;;30.97;29.66;102047.06;6338812;22;45537;-76
2022/08/09 11:30:19;;;;;;;;;6.50;6.00;;;;;31.10;29.62;102045.22;6339018;22;45420;-77
2022/08/09 11:32:49;;;;;;;;;8.00;7.50;;;;;31.24;29.27;102048.84;6340929;22;45335;-77
2022/08/09 11:35:27;;;;;;;;;8.50;8.50;;;;;31.30;28.78;102049.28;6310768;22;45584;-77
2022/08/09 11:37:58;;;;;;;;;7.25;7.25;;;;;31.32;28.99;102041.00;6310627;22;47239;-76
2022/08/09 11:40:23;;;;;;;;;6.25;5.25;;;;;31.42;29.11;102053.88;6338304;22;45254;-78